Airfield :
LOGIN :

Register | Disclaimer

   EN    FR    IT 

 










Legend :    VFR   Marginal VFR   IFR   Intensive IFR   Very Intensive IFR
Visi :
Ceiling :
>= 8 km
>= 3000ft
5 to 8 km
1000 to 3000 ft
1500m to 5 km
500 to 1000 ft
800 to 1500m
200 to 500 ft
< 800m
< 200 ft
Symbols :   Thunderstorms  Fog  Heavy snow  Heavy precipitations  Wind > 20 kt
SIGMETs :     Misc.  Thunderstorms  Icing  Turbulence  Mountain Waves  Volcanic Ashes






- Airport Elevation : 231 ft
- IATA code : WTN


EGXW - RAF Waddington

CURRENT METAR :
  • 280350Z AUTO 21016KT 9999 NCD 07/05 Q0996

EXPIRED METARs :
  • 280250Z AUTO 21013KT 9999 FEW160/// 08/05 Q0995
  • 280150Z AUTO 22013KT 9999 FEW180/// 08/05 Q0996

TAF TAF EGXW
Valid from the 27 at 15:00 until the 28 at 09:00 UTC


271343Z 2715/2809 17015G25KT 9999 -RA BKN008
BECMG 2715/2717 26015G25KT
TEMPO 2715/2717 6000 RA BKN006
PROB40
TEMPO 2715/2717 2500 RA BKN004
BECMG 2717/2719 NSW SCT040
BECMG 2719/2721 24012KT



MET'MAP, your aeronautical weather chart ! - Copyright ORBIFLY December 2007 - Disclaimer

ORBIFLY MET'MAP TEAM :

Programming & Development : Alexandra Zaïnal
Concept & original design : Baudouin d'Aumeries
Assistance for programming : Marc-Olivier Méhu
Technical & hardware support : Manuel Goepfert

Contact : metmap@orbifly.com




SOURCES & CREDITS :

   NOAA